An Xiu Shan — BRQV — position and weather

sailwx.info

Track history (hours):
 
Tides and Currents Weather Stations Pressure Air Temp Water Temp Dewpoint Dewpoint Depression Visibility Wind Speed Wind Dir Waves Ship Positions

An Xiu Shan

Last reported at 2017-Dec-12 00:34 UTC. Time now 2017-Dec-16 05:26 UTC.
Position N 31°02' E 122°20'.

Length 199 m; draft 7 m.

Type: Cargo ship. MMSI: 413195000.

Date/timePositionNaut miles runAvg speedWind from/ knotsBaromVisibWave heightAir tempDewpointWater temp
2017-Dec-12 00:34N 31°02' E 122°20'412.8
2017-Dec-12 00:17N 31°02' E 122°16'312.1
2017-Dec-12 00:00N 31°03' E 122°12'611.4
2017-Dec-11 23:30N 31°04' E 122°05'510.4
2017-Dec-11 22:59N 31°06' E 121°59'510.4
2017-Dec-11 22:30N 31°08' E 121°54'910.0
2017-Dec-11 21:37N 31°14' E 121°47'110.1
2017-Dec-11 21:29N 31°15' E 121°46'610.6
2017-Dec-11 20:56N 31°20' E 121°41'511.3
2017-Dec-11 20:30N 31°22' E 121°37'611.2
2017-Dec-11 20:00N 31°25' E 121°31'511.1
2017-Dec-11 19:30N 31°29' E 121°26'5 9.9
2017-Dec-11 19:00N 31°32' E 121°22'612.5
2017-Dec-11 18:30N 31°36' E 121°17'713.3
2017-Dec-11 18:00N 31°41' E 121°11'713.1
2017-Dec-11 17:30N 31°45' E 121°05'713.0
2017-Dec-11 16:58N 31°47' E 120°57'2310.6
2017-Dec-11 14:47N 32°00' E 120°35'311.7
2017-Dec-11 14:30N 32°02' E 120°31'710.3
2017-Dec-11 13:49N 32°00' E 120°23'4 0.1
2017-Dec-10 01:00N 31°58' E 120°20'3 6.1
2017-Dec-10 00:29N 31°60' E 120°22'510.4
2017-Dec-10 00:00N 32°02' E 120°28'710.7
2017-Dec-09 23:24N 32°00' E 120°35'74 2.0
2017-Dec-08 10:11N 31°18' E 121°46'2 9.0
2017-Dec-08 10:00N 31°18' E 121°48'5 9.7
2017-Dec-08 09:30N 31°16' E 121°53'2610.3
2017-Dec-08 06:58N 31°06' E 122°21'  
2017-Dec-03 10:52N 21°02' E 110°56'4 9.9
2017-Dec-03 10:30N 21°01' E 110°52'510.3
2017-Dec-03 10:00N 21°02' E 110°46'510.5
2017-Dec-03 09:30N 21°03' E 110°41'510.7
2017-Dec-03 09:00N 21°04' E 110°35'5 9.5
2017-Dec-03 08:30N 21°05' E 110°30'4 7.2
2017-Dec-03 08:00N 21°06' E 110°26'3 6.7
2017-Dec-03 07:30N 21°08' E 110°24'0 0.3
2017-Dec-03 07:00N 21°09' E 110°24'0 0.0
2017-Dec-03 06:30N 21°09' E 110°24'0 0.0
2017-Dec-03 05:57N 21°09' E 110°24'0 0.0
2017-Dec-03 05:30N 21°09' E 110°24'0 0.0
2017-Dec-03 04:57N 21°09' E 110°24'0 0.0
2017-Dec-03 04:30N 21°09' E 110°24'0 0.0
2017-Dec-03 03:57N 21°09' E 110°24'0 0.0
2017-Dec-03 03:30N 21°09' E 110°24'0 0.0
2017-Dec-03 03:00N 21°09' E 110°24'0 0.0
2017-Dec-03 02:27N 21°09' E 110°24'24 0.9
2017-Dec-02 00:52N 21°04' E 110°49'  
Track history (hours):
 
Tides and Currents Weather Stations Pressure Air Temp Water Temp Dewpoint Dewpoint Depression Visibility Wind Speed Wind Dir Waves Ship Positions

An Xiu Shan

Last reported at 2017-Dec-12 00:34 UTC. Time now 2017-Dec-16 05:26 UTC.
Position N 31°02' E 122°20'.

Length 199 m; draft 7 m.

Type: Cargo ship. MMSI: 413195000.

Date/timePositionNaut miles runAvg speedWind from/ knotsBaromVisibWave heightAir tempDewpointWater temp
2017-Dec-12 00:34N 31°02' E 122°20'412.8
2017-Dec-12 00:17N 31°02' E 122°16'312.1
2017-Dec-12 00:00N 31°03' E 122°12'611.4
2017-Dec-11 23:30N 31°04' E 122°05'510.4
2017-Dec-11 22:59N 31°06' E 121°59'510.4
2017-Dec-11 22:30N 31°08' E 121°54'910.0
2017-Dec-11 21:37N 31°14' E 121°47'110.1
2017-Dec-11 21:29N 31°15' E 121°46'610.6
2017-Dec-11 20:56N 31°20' E 121°41'511.3
2017-Dec-11 20:30N 31°22' E 121°37'611.2
2017-Dec-11 20:00N 31°25' E 121°31'511.1
2017-Dec-11 19:30N 31°29' E 121°26'5 9.9
2017-Dec-11 19:00N 31°32' E 121°22'612.5
2017-Dec-11 18:30N 31°36' E 121°17'713.3
2017-Dec-11 18:00N 31°41' E 121°11'713.1
2017-Dec-11 17:30N 31°45' E 121°05'713.0
2017-Dec-11 16:58N 31°47' E 120°57'2310.6
2017-Dec-11 14:47N 32°00' E 120°35'311.7
2017-Dec-11 14:30N 32°02' E 120°31'710.3
2017-Dec-11 13:49N 32°00' E 120°23'4 0.1
2017-Dec-10 01:00N 31°58' E 120°20'3 6.1
2017-Dec-10 00:29N 31°60' E 120°22'510.4
2017-Dec-10 00:00N 32°02' E 120°28'710.7
2017-Dec-09 23:24N 32°00' E 120°35'74 2.0
2017-Dec-08 10:11N 31°18' E 121°46'2 9.0
2017-Dec-08 10:00N 31°18' E 121°48'5 9.7
2017-Dec-08 09:30N 31°16' E 121°53'2610.3
2017-Dec-08 06:58N 31°06' E 122°21'  
2017-Dec-03 10:52N 21°02' E 110°56'4 9.9
2017-Dec-03 10:30N 21°01' E 110°52'510.3
2017-Dec-03 10:00N 21°02' E 110°46'510.5
2017-Dec-03 09:30N 21°03' E 110°41'510.7
2017-Dec-03 09:00N 21°04' E 110°35'5 9.5
2017-Dec-03 08:30N 21°05' E 110°30'4 7.2
2017-Dec-03 08:00N 21°06' E 110°26'3 6.7
2017-Dec-03 07:30N 21°08' E 110°24'0 0.3
2017-Dec-03 07:00N 21°09' E 110°24'0 0.0
2017-Dec-03 06:30N 21°09' E 110°24'0 0.0
2017-Dec-03 05:57N 21°09' E 110°24'0 0.0
2017-Dec-03 05:30N 21°09' E 110°24'0 0.0
2017-Dec-03 04:57N 21°09' E 110°24'0 0.0
2017-Dec-03 04:30N 21°09' E 110°24'0 0.0
2017-Dec-03 03:57N 21°09' E 110°24'0 0.0
2017-Dec-03 03:30N 21°09' E 110°24'0 0.0
2017-Dec-03 03:00N 21°09' E 110°24'0 0.0
2017-Dec-03 02:27N 21°09' E 110°24'24 0.9
2017-Dec-02 00:52N 21°04' E 110°49'  

Dump ship's entire track history